createdAt,value
2017-06-09T00:01:51.778Z,2.80
2017-06-09T00:04:25.859Z,2.40
2017-06-09T00:06:58.597Z,2.50
2017-06-09T00:09:31.794Z,2.40
2017-06-09T00:12:05.954Z,2.90
2017-06-09T00:14:38.766Z,2.20
2017-06-09T00:17:12.021Z,2.70
2017-06-09T00:19:45.884Z,2.87
2017-06-09T00:22:18.767Z,2.80
2017-06-09T00:24:51.967Z,2.95
2017-06-09T00:27:26.740Z,2.93
2017-06-09T00:29:59.595Z,2.80
2017-06-09T00:32:32.803Z,3.60
2017-06-09T00:35:07.083Z,2.42
2017-06-09T00:37:40.321Z,2.33
2017-06-09T00:40:13.557Z,2.50
2017-06-09T00:42:47.038Z,2.35
2017-06-09T00:45:19.935Z,3.20
2017-06-09T00:47:53.186Z,2.97
2017-06-09T01:03:14.181Z,2.72
2017-06-09T01:05:47.342Z,2.60
2017-06-09T01:08:20.270Z,3.20
2017-06-09T01:10:53.576Z,2.55
2017-06-09T01:13:26.461Z,2.90
2017-06-09T01:15:59.937Z,2.53
2017-06-09T01:18:32.673Z,2.90
2017-06-09T01:21:05.169Z,2.60
2017-06-09T01:23:37.646Z,3.05
2017-06-09T01:26:10.633Z,2.50
2017-06-09T01:28:43.034Z,2.70
2017-06-09T01:31:15.534Z,3.10
2017-06-09T01:33:48.936Z,2.87
2017-06-09T01:36:22.198Z,2.90
2017-06-09T01:38:55.423Z,2.50
2017-06-09T01:41:28.699Z,3.10
2017-06-09T01:44:01.511Z,3.00
2017-06-09T01:46:34.299Z,2.93
2017-06-09T01:49:07.237Z,2.20
2017-06-09T01:51:39.647Z,2.33
2017-06-09T01:54:12.305Z,2.30
2017-06-09T01:56:44.723Z,2.50
2017-06-09T01:59:17.404Z,2.40
2017-06-09T02:01:50.602Z,2.60
2017-06-09T02:04:23.840Z,2.95
2017-06-09T02:06:56.989Z,2.85
2017-06-09T02:09:29.886Z,2.50
2017-06-09T02:12:03.686Z,2.50
2017-06-09T02:14:36.571Z,3.40
2017-06-09T02:17:10.606Z,2.50
2017-06-09T02:19:44.190Z,2.60
2017-06-09T02:22:17.464Z,2.20
2017-06-09T02:24:50.356Z,2.37
2017-06-09T02:27:23.786Z,2.80
2017-06-09T02:29:57.681Z,2.47
2017-06-09T02:32:31.260Z,2.05
2017-06-09T02:35:05.740Z,2.78
2017-06-09T02:37:39.353Z,2.60
2017-06-09T02:40:12.709Z,2.60
2017-06-09T02:42:45.857Z,2.40
2017-06-09T02:45:19.284Z,2.53
2017-06-09T02:47:52.512Z,2.67
2017-06-09T02:50:26.262Z,3.10
2017-06-09T02:52:59.507Z,2.90
2017-06-09T02:55:33.270Z,2.10
2017-06-09T02:58:06.136Z,2.72
2017-06-09T03:00:40.616Z,2.70
2017-06-09T03:03:14.427Z,2.65
2017-06-09T03:05:47.594Z,2.92
2017-06-09T03:08:20.858Z,2.70
2017-06-09T03:10:53.749Z,2.60
2017-06-09T03:13:27.363Z,3.83
2017-06-09T03:16:00.555Z,2.83
2017-06-09T03:18:33.316Z,2.30
2017-06-09T03:21:07.049Z,3.28
2017-06-09T03:23:40.095Z,3.10
2017-06-09T03:26:13.487Z,2.85
2017-06-09T03:28:46.921Z,2.67
2017-06-09T03:31:23.996Z,2.60
2017-06-09T03:33:57.415Z,2.40
2017-06-09T03:36:30.337Z,3.10
2017-06-09T03:39:02.741Z,2.47
2017-06-09T03:41:35.866Z,2.30
2017-06-09T03:44:08.709Z,2.50
2017-06-09T03:46:43.115Z,3.00
2017-06-09T03:49:17.176Z,2.55
2017-06-09T03:51:50.152Z,3.00
2017-06-09T03:54:23.087Z,2.23
2017-06-09T03:56:56.391Z,3.17
2017-06-09T03:59:29.509Z,2.30
2017-06-09T04:02:03.114Z,2.40
2017-06-09T04:04:35.624Z,2.47
2017-06-09T04:07:08.086Z,2.42
2017-06-09T04:09:40.995Z,2.90
2017-06-09T04:12:13.496Z,2.65
2017-06-09T04:14:45.923Z,2.23
2017-06-09T04:17:18.419Z,2.12
2017-06-09T04:19:51.769Z,2.60
2017-06-09T04:22:25.207Z,3.40
2017-06-09T04:24:57.582Z,2.50
2017-06-09T04:27:30.529Z,2.40
2017-06-09T04:30:03.455Z,2.40
2017-06-09T04:32:36.490Z,2.53
2017-06-09T04:35:10.572Z,2.72
2017-06-09T04:37:43.679Z,2.47
2017-06-09T04:40:16.983Z,2.03
2017-06-09T04:42:50.027Z,2.60
2017-06-09T04:45:22.895Z,2.80
2017-06-09T04:47:56.149Z,2.80
2017-06-09T04:53:01.175Z,2.40
2017-06-09T04:55:34.935Z,2.60
2017-06-09T04:58:07.626Z,2.00
2017-06-09T05:00:40.444Z,8.77
2017-06-09T05:03:13.427Z,2.58
2017-06-09T05:05:47.253Z,2.80
2017-06-09T05:08:20.326Z,2.22
2017-06-09T05:10:53.021Z,2.70
2017-06-09T05:13:25.743Z,2.80
2017-06-09T05:15:58.532Z,4.07
2017-06-09T05:18:30.979Z,2.55
2017-06-09T05:21:07.162Z,3.25
2017-06-09T05:23:44.122Z,2.60
2017-06-09T05:26:16.742Z,3.60
2017-06-09T05:28:49.369Z,3.10
2017-06-09T05:31:25.940Z,2.30
2017-06-09T05:33:58.561Z,2.65
2017-06-09T05:36:31.136Z,3.20
2017-06-09T05:39:03.623Z,2.75
2017-06-09T05:41:36.195Z,3.35
2017-06-09T05:44:08.697Z,2.87
2017-06-09T05:46:41.338Z,2.90
2017-06-09T05:49:14.105Z,3.30
2017-06-09T05:51:46.878Z,3.10
2017-06-09T05:54:20.281Z,2.70
2017-06-09T05:56:53.123Z,2.67
2017-06-09T05:59:26.140Z,3.30
2017-06-09T06:01:59.136Z,3.15
2017-06-09T06:04:31.761Z,3.17
2017-06-09T06:07:04.545Z,2.83
2017-06-09T06:09:37.438Z,2.70
2017-06-09T06:12:10.207Z,2.90
2017-06-09T06:14:43.161Z,2.60
2017-06-09T06:17:16.071Z,2.00
2017-06-09T06:19:48.529Z,2.37
2017-06-09T06:22:21.006Z,2.78
2017-06-09T06:24:55.177Z,4.10
2017-06-09T06:27:27.657Z,2.50
2017-06-09T06:30:00.057Z,3.08
2017-06-09T06:32:33.682Z,2.80
2017-06-09T06:35:06.267Z,3.25
2017-06-09T06:37:39.283Z,2.70
2017-06-09T06:40:12.110Z,3.30
2017-06-09T06:42:44.866Z,2.70
2017-06-09T06:45:17.382Z,2.80
2017-06-09T06:47:49.850Z,3.97
2017-06-09T06:50:22.835Z,2.70
2017-06-09T06:52:55.703Z,2.40
2017-06-09T06:55:29.240Z,2.33
2017-06-09T06:58:01.659Z,2.80
2017-06-09T07:00:35.465Z,2.70
2017-06-09T07:03:10.381Z,3.12
2017-06-09T07:05:42.994Z,3.20
2017-06-09T07:08:16.097Z,2.83
2017-06-09T07:10:49.530Z,3.10
2017-06-09T07:13:22.309Z,2.70
2017-06-09T07:15:55.802Z,2.37
2017-06-09T07:18:28.845Z,2.60
2017-06-09T07:21:06.334Z,3.25
2017-06-09T07:23:34.478Z,3.70
2017-06-09T07:26:07.430Z,3.60
2017-06-09T07:28:40.191Z,2.80
2017-06-09T07:31:12.984Z,2.90
2017-06-09T07:33:45.979Z,2.95
2017-06-09T07:36:18.401Z,2.93
2017-06-09T07:38:51.174Z,2.80
2017-06-09T07:41:23.869Z,2.80
2017-06-09T07:43:57.394Z,3.50
2017-06-09T07:46:30.177Z,3.95
2017-06-09T07:49:02.718Z,2.62
2017-06-09T07:51:35.660Z,2.85
2017-06-09T07:54:08.315Z,3.60
2017-06-09T07:56:41.303Z,3.50
2017-06-09T07:59:13.838Z,2.83
2017-06-09T08:01:47.298Z,3.00
2017-06-09T08:04:19.741Z,2.45
2017-06-09T08:06:52.466Z,3.40
2017-06-09T08:09:25.346Z,3.70
2017-06-09T08:11:58.840Z,2.40
2017-06-09T08:14:31.746Z,3.42
2017-06-09T08:17:04.763Z,4.05
2017-06-09T08:19:37.551Z,3.50
2017-06-09T08:22:10.151Z,3.70
2017-06-09T08:24:42.691Z,2.90
2017-06-09T08:27:15.257Z,3.27
2017-06-09T08:29:47.772Z,3.60
2017-06-09T08:32:20.843Z,3.83
2017-06-09T08:34:53.293Z,4.00
2017-06-09T08:37:26.058Z,4.05
2017-06-09T08:39:58.628Z,4.22
2017-06-09T08:42:31.276Z,4.20
2017-06-09T08:45:04.110Z,3.43
2017-06-09T08:47:36.575Z,3.30
2017-06-09T08:50:09.600Z,4.43
2017-06-09T08:52:42.679Z,3.50
2017-06-09T08:55:15.224Z,3.40
2017-06-09T08:57:48.258Z,3.08
2017-06-09T09:00:20.878Z,2.60
2017-06-09T09:02:54.047Z,3.60
2017-06-09T09:05:26.565Z,2.78
2017-06-09T09:07:59.003Z,3.35
2017-06-09T09:10:31.726Z,4.90
2017-06-09T09:13:04.584Z,5.62
2017-06-09T09:15:37.228Z,3.83
2017-06-09T09:18:09.750Z,3.53
2017-06-09T09:20:42.490Z,4.28
2017-06-09T09:23:15.319Z,3.55
2017-06-09T09:25:47.762Z,3.42
2017-06-09T09:28:20.830Z,3.90
2017-06-09T09:30:54.649Z,4.30
2017-06-09T09:33:27.690Z,3.50
2017-06-09T09:36:00.158Z,3.67
2017-06-09T09:38:32.990Z,3.20
2017-06-09T09:41:05.391Z,3.60
2017-06-09T09:43:38.382Z,6.90
2017-06-09T09:46:10.805Z,3.20
2017-06-09T09:48:43.284Z,3.47
2017-06-09T09:51:15.771Z,5.60
2017-06-09T09:53:48.318Z,3.43
2017-06-09T09:56:21.266Z,4.78
2017-06-09T09:58:53.774Z,4.20
2017-06-09T10:01:26.858Z,3.20
2017-06-09T10:03:59.688Z,3.63
2017-06-09T10:06:32.212Z,3.80
2017-06-09T10:09:05.276Z,3.00
2017-06-09T10:11:37.717Z,3.67
2017-06-09T10:14:10.351Z,2.90
2017-06-09T10:16:43.061Z,5.32
2017-06-09T10:19:15.812Z,3.20
2017-06-09T10:21:49.428Z,3.72
2017-06-09T10:24:22.213Z,5.93
2017-06-09T10:26:55.727Z,4.10
2017-06-09T10:29:28.562Z,3.42
2017-06-09T10:32:09.809Z,2.40
2017-06-09T10:34:43.312Z,3.70
2017-06-09T10:37:16.263Z,3.70
2017-06-09T10:39:48.844Z,3.12
2017-06-09T10:42:21.259Z,3.15
2017-06-09T10:44:53.955Z,3.70
2017-06-09T10:47:26.898Z,4.55
2017-06-09T10:50:00.586Z,3.50
2017-06-09T10:52:33.376Z,3.30
2017-06-09T10:55:08.484Z,3.92
2017-06-09T10:57:41.069Z,4.40
2017-06-09T11:00:14.119Z,4.85
2017-06-09T11:02:46.580Z,4.28
2017-06-09T11:05:19.350Z,3.90
2017-06-09T11:07:53.642Z,4.70
2017-06-09T11:10:27.101Z,4.78
2017-06-09T11:13:00.439Z,3.33
2017-06-09T11:15:33.142Z,4.30
2017-06-09T11:18:06.032Z,3.97
2017-06-09T11:20:39.453Z,4.07
2017-06-09T11:23:12.830Z,3.70
2017-06-09T11:25:45.783Z,4.00
2017-06-09T11:28:19.333Z,4.40
2017-06-09T11:30:53.911Z,5.20
2017-06-09T11:33:26.587Z,5.40
2017-06-09T11:35:59.312Z,4.55
2017-06-09T11:38:33.204Z,3.92
2017-06-09T11:41:06.092Z,1.37
2017-06-09T11:43:40.617Z,1.65
2017-06-09T11:46:13.761Z,1.50
2017-06-09T11:48:46.460Z,1.60
2017-06-09T11:51:19.692Z,1.60
2017-06-09T11:53:52.733Z,1.48
2017-06-09T11:56:25.593Z,1.30
2017-06-09T11:58:58.162Z,1.50
2017-06-09T12:01:31.580Z,1.50
2017-06-09T12:04:04.359Z,1.47
2017-06-09T12:06:36.939Z,1.70
2017-06-09T12:09:10.038Z,1.27
2017-06-09T12:11:42.947Z,1.30
2017-06-09T12:14:16.616Z,1.70
2017-06-09T12:16:49.162Z,1.90
2017-06-09T12:19:22.127Z,1.50
2017-06-09T12:21:55.150Z,1.30
2017-06-09T12:24:27.972Z,1.40
2017-06-09T12:27:00.626Z,1.35
2017-06-09T12:29:33.091Z,1.40
2017-06-09T12:32:06.784Z,1.40
2017-06-09T12:34:39.400Z,1.77
2017-06-09T12:37:12.512Z,1.70
2017-06-09T12:39:45.873Z,1.60
2017-06-09T12:42:19.150Z,1.50
2017-06-09T12:44:51.695Z,1.30
2017-06-09T12:47:24.625Z,1.50
2017-06-09T12:49:58.462Z,1.40
2017-06-09T12:52:31.162Z,1.60
2017-06-09T12:55:03.627Z,1.60
2017-06-09T12:57:36.356Z,1.80
2017-06-09T13:00:10.113Z,2.10
2017-06-09T13:02:43.302Z,1.77
2017-06-09T13:05:16.141Z,1.70
2017-06-09T13:07:48.778Z,1.55
2017-06-09T13:10:22.501Z,1.40
2017-06-09T13:12:55.497Z,1.50
2017-06-09T13:15:28.631Z,1.20
2017-06-09T13:18:06.633Z,1.30
2017-06-09T13:20:39.129Z,1.45
2017-06-09T13:23:12.769Z,1.52
2017-06-09T13:25:45.398Z,1.50
2017-06-09T13:28:18.864Z,1.33
2017-06-09T13:30:52.297Z,1.80
2017-06-09T13:33:25.452Z,1.30
2017-06-09T13:35:58.041Z,1.92
2017-06-09T13:38:30.764Z,1.80
2017-06-09T13:41:03.843Z,1.50
2017-06-09T13:43:36.366Z,1.40
2017-06-09T13:46:09.421Z,2.03
2017-06-09T13:48:42.157Z,1.55
2017-06-09T13:51:15.065Z,1.62
2017-06-09T13:53:47.706Z,1.80
2017-06-09T13:56:20.241Z,1.80
2017-06-09T13:58:52.912Z,1.90
2017-06-09T14:01:25.785Z,2.03
2017-06-09T14:03:58.350Z,1.67
2017-06-09T14:06:30.849Z,1.90
2017-06-09T14:09:03.953Z,1.90
2017-06-09T14:11:36.393Z,2.12
2017-06-09T14:14:10.786Z,2.05
2017-06-09T14:16:43.533Z,1.90
2017-06-09T14:19:17.625Z,2.22
2017-06-09T14:21:51.270Z,2.07
2017-06-09T14:24:23.820Z,2.08
2017-06-09T14:26:56.680Z,1.73
2017-06-09T14:29:30.340Z,2.10
2017-06-09T14:32:02.996Z,2.00
2017-06-09T14:34:36.248Z,2.33
2017-06-09T14:37:09.071Z,2.20
2017-06-09T14:39:41.505Z,2.20
2017-06-09T14:42:14.333Z,1.73
2017-06-09T14:44:46.877Z,1.90
2017-06-09T14:47:19.846Z,2.00
2017-06-09T14:49:52.757Z,2.10
2017-06-09T14:52:25.869Z,1.90
2017-06-09T14:54:59.232Z,2.00
2017-06-09T14:57:32.190Z,1.80
2017-06-09T15:00:05.382Z,1.85
2017-06-09T15:02:38.170Z,1.97
2017-06-09T15:05:11.336Z,1.98
2017-06-09T15:07:44.147Z,2.00
2017-06-09T15:10:16.769Z,1.90
2017-06-09T15:12:49.747Z,1.70
2017-06-09T15:15:23.321Z,1.70
2017-06-09T15:17:56.182Z,2.00
2017-06-09T15:20:29.263Z,2.05
2017-06-09T15:23:01.686Z,1.80
2017-06-09T15:25:35.855Z,2.70
2017-06-09T15:28:09.011Z,1.80
2017-06-09T15:30:42.612Z,1.80
2017-06-09T15:33:15.350Z,1.63
2017-06-09T15:35:48.456Z,1.90
2017-06-09T15:38:20.948Z,1.50
2017-06-09T15:40:53.658Z,1.70
2017-06-09T15:43:26.080Z,1.90
2017-06-09T15:45:58.873Z,1.60
2017-06-09T15:48:32.653Z,1.60
2017-06-09T15:51:05.579Z,1.93
2017-06-09T15:53:39.134Z,1.35
2017-06-09T15:56:12.036Z,1.60
2017-06-09T15:58:44.438Z,1.60
2017-06-09T16:01:21.825Z,1.90
2017-06-09T16:03:54.584Z,1.70
2017-06-09T16:06:27.582Z,1.73
2017-06-09T16:09:01.716Z,1.70
2017-06-09T16:11:36.309Z,1.33
2017-06-09T16:14:08.713Z,1.50
2017-06-09T16:16:41.789Z,1.52
2017-06-09T16:19:14.752Z,1.30
2017-06-09T16:21:47.579Z,1.50
2017-06-09T16:24:20.965Z,1.67
2017-06-09T16:27:04.752Z,1.65
2017-06-09T16:29:48.234Z,1.30
2017-06-09T16:32:20.926Z,1.50
2017-06-09T16:34:53.870Z,1.60
2017-06-09T16:37:27.704Z,1.50
2017-06-09T16:40:00.247Z,1.60
2017-06-09T16:42:32.758Z,1.65
2017-06-09T16:45:05.590Z,1.60
2017-06-09T16:47:38.451Z,1.40
2017-06-09T16:50:11.175Z,1.70
2017-06-09T16:52:43.592Z,1.70
2017-06-09T16:55:16.341Z,1.90
2017-06-09T16:57:49.246Z,2.08
2017-06-09T17:00:21.850Z,1.85
2017-06-09T17:02:55.059Z,2.05
2017-06-09T17:05:27.853Z,1.60
2017-06-09T17:08:00.702Z,1.87
2017-06-09T17:12:04.357Z,1.42
2017-06-09T17:14:39.471Z,2.12
2017-06-09T17:17:15.026Z,1.73
2017-06-09T17:19:48.768Z,2.10
2017-06-09T17:22:23.020Z,1.70
2017-06-09T17:24:55.934Z,2.03
2017-06-09T17:27:28.922Z,1.87
2017-06-09T17:30:01.618Z,2.17
2017-06-09T17:32:35.106Z,2.10
2017-06-09T17:35:08.294Z,1.80
2017-06-09T17:37:40.736Z,1.70
2017-06-09T17:40:13.965Z,1.77
2017-06-09T17:42:46.699Z,1.95
2017-06-09T17:45:19.348Z,1.80
2017-06-09T17:47:53.088Z,2.60
2017-06-09T17:50:27.717Z,1.85
2017-06-09T17:55:41.252Z,1.90
2017-06-09T17:58:13.669Z,2.00
2017-06-09T18:00:46.578Z,1.95
2017-06-09T18:03:18.935Z,2.35
2017-06-09T18:05:51.467Z,2.40
2017-06-09T18:08:24.130Z,2.23
2017-06-09T18:10:57.687Z,2.10
2017-06-09T18:13:30.810Z,2.10
2017-06-09T18:16:04.004Z,2.00
2017-06-09T18:18:39.343Z,2.67
2017-06-09T18:21:11.911Z,2.70
2017-06-09T18:23:45.180Z,2.10
2017-06-09T18:26:19.184Z,2.30
2017-06-09T18:28:53.450Z,2.15
2017-06-09T18:31:26.358Z,2.35
2017-06-09T18:33:59.399Z,2.40
2017-06-09T18:36:31.938Z,2.40
2017-06-09T18:39:04.867Z,2.20
2017-06-09T18:41:37.788Z,2.40
2017-06-09T18:44:10.458Z,2.10
2017-06-09T18:46:44.174Z,2.75
2017-06-09T18:49:17.588Z,2.37
2017-06-09T18:51:51.944Z,2.60
2017-06-09T18:54:24.399Z,2.53
2017-06-09T18:56:57.451Z,2.20
2017-06-09T18:59:31.093Z,2.97
2017-06-09T19:02:05.224Z,2.20
2017-06-09T19:04:38.432Z,2.28
2017-06-09T19:07:11.227Z,2.40
2017-06-09T19:09:43.786Z,2.70
2017-06-09T19:12:16.883Z,2.30
2017-06-09T19:14:49.376Z,2.65
2017-06-09T19:17:22.180Z,2.47
2017-06-09T19:19:54.606Z,2.90
2017-06-09T19:22:27.179Z,2.70
2017-06-09T19:24:59.726Z,2.65
2017-06-09T19:27:32.270Z,2.45
2017-06-09T19:30:04.991Z,2.83
2017-06-09T19:32:37.508Z,2.60
2017-06-09T19:35:10.495Z,2.70
2017-06-09T19:37:42.843Z,2.80
2017-06-09T19:40:15.532Z,2.70
2017-06-09T19:42:48.183Z,2.87
2017-06-09T19:45:20.585Z,2.80
2017-06-09T19:47:53.246Z,2.92
2017-06-09T19:50:25.725Z,2.90
2017-06-09T19:52:58.834Z,2.80
2017-06-09T19:55:31.739Z,2.60
2017-06-09T19:58:04.806Z,2.80
2017-06-09T20:00:37.518Z,2.50
2017-06-09T20:03:11.071Z,2.90
2017-06-09T20:05:43.459Z,3.10
2017-06-09T20:08:15.975Z,3.10
2017-06-09T20:10:48.353Z,2.97
2017-06-09T20:13:21.051Z,2.60
2017-06-09T20:15:53.808Z,2.90
2017-06-09T20:18:26.246Z,2.72
2017-06-09T20:20:59.009Z,2.80
2017-06-09T20:23:31.406Z,3.20
2017-06-09T20:26:03.931Z,3.17
2017-06-09T20:28:36.807Z,2.77
2017-06-09T20:31:09.270Z,3.20
2017-06-09T20:33:41.912Z,3.20
2017-06-09T20:36:15.099Z,2.67
2017-06-09T20:38:48.279Z,3.90
2017-06-09T20:41:21.806Z,2.80
2017-06-09T20:43:54.576Z,3.30
2017-06-09T20:46:27.031Z,2.97
2017-06-09T20:49:00.103Z,2.83
2017-06-09T20:51:33.523Z,3.10
2017-06-09T20:54:05.968Z,3.30
2017-06-09T20:56:39.329Z,3.10
2017-06-09T20:59:13.784Z,3.30
2017-06-09T21:01:46.464Z,3.35
2017-06-09T21:04:18.947Z,3.12
2017-06-09T21:06:51.764Z,3.17
2017-06-09T21:09:24.982Z,2.70
2017-06-09T21:11:57.850Z,3.40
2017-06-09T21:14:30.557Z,3.03
2017-06-09T21:17:04.316Z,3.40
2017-06-09T21:19:36.838Z,3.12
2017-06-09T21:22:09.469Z,2.90
2017-06-09T21:24:42.518Z,3.20
2017-06-09T21:27:15.238Z,3.40
2017-06-09T21:29:48.082Z,3.00
2017-06-09T21:32:20.733Z,2.90
2017-06-09T21:34:53.911Z,3.10
2017-06-09T21:37:26.569Z,3.28
2017-06-09T21:39:59.405Z,3.30
2017-06-09T21:42:32.273Z,3.08
2017-06-09T21:45:05.825Z,2.97
2017-06-09T21:47:38.179Z,3.10
2017-06-09T21:50:11.419Z,3.62
2017-06-09T21:52:44.035Z,3.40
2017-06-09T21:55:17.228Z,3.30
2017-06-09T21:57:50.515Z,3.70
2017-06-09T22:00:23.786Z,4.00
2017-06-09T22:02:56.302Z,3.70
2017-06-09T22:05:29.269Z,3.70
2017-06-09T22:08:02.453Z,3.60
2017-06-09T22:10:36.089Z,3.53
2017-06-09T22:13:09.219Z,4.50
2017-06-09T22:15:42.686Z,4.07
2017-06-09T22:18:16.187Z,4.30
2017-06-09T22:20:50.009Z,3.70
2017-06-09T22:23:22.894Z,3.85
2017-06-09T22:25:56.086Z,3.70
2017-06-09T22:28:29.195Z,4.10
2017-06-09T22:31:01.865Z,4.15
2017-06-09T22:33:34.252Z,3.50
2017-06-09T22:36:07.258Z,3.90
2017-06-09T22:38:40.079Z,3.78
2017-06-09T22:41:13.391Z,4.60
2017-06-09T22:43:45.812Z,3.90
2017-06-09T22:46:18.984Z,4.10
2017-06-09T22:48:55.021Z,4.70
2017-06-09T22:51:29.324Z,5.45
2017-06-09T22:54:02.447Z,4.97
2017-06-09T22:56:35.368Z,4.67
2017-06-09T22:59:08.254Z,5.30
2017-06-09T23:01:42.273Z,4.30
2017-06-09T23:04:15.657Z,4.60
2017-06-09T23:06:48.345Z,4.72
2017-06-09T23:09:22.108Z,4.00
2017-06-09T23:11:54.956Z,3.50
2017-06-09T23:14:28.316Z,3.40
2017-06-09T23:17:01.641Z,2.70
2017-06-09T23:19:35.087Z,2.80
2017-06-09T23:22:08.241Z,3.30
2017-06-09T23:24:46.006Z,3.12
2017-06-09T23:27:20.784Z,3.90
2017-06-09T23:29:57.680Z,3.80
2017-06-09T23:32:31.482Z,3.40
2017-06-09T23:35:08.086Z,2.92
2017-06-09T23:37:41.824Z,3.00
2017-06-09T23:40:15.117Z,3.25
2017-06-09T23:42:48.195Z,3.10
2017-06-09T23:45:21.014Z,3.15
2017-06-09T23:47:54.978Z,2.65
2017-06-09T23:50:28.077Z,2.80
2017-06-09T23:53:01.296Z,3.40
2017-06-09T23:55:34.514Z,3.10
2017-06-09T23:58:07.466Z,2.40
